createdAt,value
2019-03-06T00:00:05.234Z,0
2019-03-06T00:01:14.679Z,0
2019-03-06T00:02:24.408Z,0
2019-03-06T00:03:34.164Z,0
2019-03-06T00:04:44.161Z,0
2019-03-06T00:05:54.131Z,0
2019-03-06T00:07:03.850Z,0
2019-03-06T00:08:13.842Z,0
2019-03-06T00:09:23.791Z,0
2019-03-06T00:10:33.763Z,0
2019-03-06T00:11:43.223Z,0
2019-03-06T00:12:53.173Z,0
2019-03-06T00:14:02.683Z,0
2019-03-06T00:15:12.395Z,0
2019-03-06T00:16:22.346Z,0
2019-03-06T00:17:32.309Z,0
2019-03-06T00:18:42.031Z,0
2019-03-06T00:19:51.785Z,0
2019-03-06T00:21:01.745Z,0
2019-03-06T00:22:11.473Z,0
2019-03-06T00:23:21.439Z,0
2019-03-06T00:24:30.891Z,0
2019-03-06T00:25:40.864Z,0
2019-03-06T00:26:50.829Z,0
2019-03-06T00:28:01.284Z,0
2019-03-06T00:29:11.633Z,0
2019-03-06T00:30:22.313Z,0
2019-03-06T00:31:32.294Z,0
2019-03-06T00:32:42.455Z,0
2019-03-06T00:33:52.405Z,0
2019-03-06T00:35:02.129Z,0
2019-03-06T00:36:12.106Z,0
2019-03-06T00:37:22.065Z,0
2019-03-06T00:38:32.037Z,0
2019-03-06T00:39:42.003Z,0
2019-03-06T00:40:51.959Z,0
2019-03-06T00:42:01.678Z,0
2019-03-06T00:43:11.387Z,0
2019-03-06T00:44:21.345Z,0
2019-03-06T00:45:31.312Z,0
2019-03-06T00:46:41.279Z,0
2019-03-06T00:47:51.233Z,0
2019-03-06T00:49:00.949Z,0
2019-03-06T00:50:10.919Z,0
2019-03-06T00:51:20.643Z,0
2019-03-06T00:52:30.604Z,0
2019-03-06T00:53:39.796Z,0
2019-03-06T00:54:49.497Z,0
2019-03-06T00:55:59.467Z,0
2019-03-06T00:57:09.172Z,0
2019-03-06T00:58:18.884Z,0
2019-03-06T00:59:28.495Z,0
2019-03-06T01:00:38.463Z,0
2019-03-06T01:01:47.942Z,0
2019-03-06T01:02:58.547Z,0
2019-03-06T01:04:09.023Z,0
2019-03-06T01:05:19.665Z,0
2019-03-06T01:06:29.891Z,0
2019-03-06T01:07:39.731Z,0
2019-03-06T01:08:49.663Z,0
2019-03-06T01:09:59.631Z,0
2019-03-06T01:11:09.329Z,0
2019-03-06T01:12:19.294Z,0
2019-03-06T01:13:29.259Z,0
2019-03-06T01:14:38.973Z,0
2019-03-06T01:15:48.947Z,0
2019-03-06T01:16:58.903Z,0
2019-03-06T01:18:08.618Z,0
2019-03-06T01:19:18.574Z,0
2019-03-06T01:20:28.543Z,0
2019-03-06T01:21:38.253Z,0
2019-03-06T01:22:47.963Z,0
2019-03-06T01:23:57.944Z,0
2019-03-06T01:25:07.908Z,0
2019-03-06T01:26:17.874Z,0
2019-03-06T01:27:27.823Z,0
2019-03-06T01:28:37.292Z,0
2019-03-06T01:29:47.248Z,0
2019-03-06T01:30:57.220Z,0
2019-03-06T01:32:07.167Z,0
2019-03-06T01:33:16.886Z,0
2019-03-06T01:34:26.645Z,0
2019-03-06T01:35:36.606Z,0
2019-03-06T01:36:47.116Z,0
2019-03-06T01:37:57.238Z,0
2019-03-06T01:39:07.599Z,0
2019-03-06T01:40:17.863Z,0
2019-03-06T01:41:27.678Z,0
2019-03-06T01:42:37.385Z,0
2019-03-06T01:43:47.366Z,0
2019-03-06T01:44:57.337Z,0
2019-03-06T01:46:07.037Z,0
2019-03-06T01:47:16.787Z,0
2019-03-06T01:48:26.745Z,0
2019-03-06T01:49:36.456Z,0
2019-03-06T01:50:46.178Z,0
2019-03-06T01:51:56.155Z,0
2019-03-06T01:53:06.122Z,0
2019-03-06T01:54:15.839Z,0
2019-03-06T01:55:25.538Z,0
2019-03-06T01:56:35.498Z,0
2019-03-06T01:57:44.701Z,0
2019-03-06T01:58:54.674Z,0
2019-03-06T02:00:04.394Z,0
2019-03-06T02:01:14.091Z,0
2019-03-06T02:02:24.063Z,0
2019-03-06T02:03:34.035Z,0
2019-03-06T02:04:43.751Z,0
2019-03-06T02:05:53.712Z,0
2019-03-06T02:07:03.685Z,0
2019-03-06T02:08:13.659Z,0
2019-03-06T02:09:23.619Z,0
2019-03-06T02:10:33.342Z,0
2019-03-06T02:11:43.889Z,0
2019-03-06T02:12:54.546Z,0
2019-03-06T02:14:04.685Z,0
2019-03-06T02:15:14.801Z,0
2019-03-06T02:16:24.761Z,0
2019-03-06T02:17:34.206Z,0
2019-03-06T02:18:44.185Z,0
2019-03-06T02:19:54.147Z,0
2019-03-06T02:21:03.862Z,0
2019-03-06T02:22:13.796Z,0
2019-03-06T02:23:23.506Z,0
2019-03-06T02:24:33.465Z,0
2019-03-06T02:25:43.174Z,0
2019-03-06T02:26:53.113Z,0
2019-03-06T02:28:03.074Z,0
2019-03-06T02:29:13.044Z,0
2019-03-06T02:30:23.020Z,0
2019-03-06T02:31:32.758Z,0
2019-03-06T02:32:42.481Z,0
2019-03-06T02:33:52.437Z,0
2019-03-06T02:35:02.199Z,0
2019-03-06T02:36:12.011Z,0
2019-03-06T02:37:21.979Z,0
2019-03-06T02:38:31.988Z,0
2019-03-06T02:39:41.754Z,0
2019-03-06T02:40:51.731Z,0
2019-03-06T02:42:01.472Z,0
2019-03-06T02:43:11.448Z,0
2019-03-06T02:44:21.439Z,0
2019-03-06T02:45:30.918Z,0
2019-03-06T02:46:40.641Z,0
2019-03-06T02:47:50.602Z,0
2019-03-06T02:49:00.688Z,0
2019-03-06T02:50:10.481Z,0
2019-03-06T02:51:20.701Z,0
2019-03-06T02:52:31.147Z,0
2019-03-06T02:53:41.315Z,0
2019-03-06T02:54:51.787Z,0
2019-03-06T02:56:01.771Z,0
2019-03-06T02:57:11.934Z,0
2019-03-06T02:58:21.946Z,0
2019-03-06T02:59:31.916Z,0
2019-03-06T03:00:41.930Z,0
2019-03-06T03:01:51.929Z,0
2019-03-06T03:03:01.920Z,0
2019-03-06T03:04:11.926Z,0
2019-03-06T03:05:21.412Z,0
2019-03-06T03:06:31.143Z,0
2019-03-06T03:07:41.112Z,0
2019-03-06T03:08:50.579Z,0
2019-03-06T03:10:00.574Z,0
2019-03-06T03:11:10.673Z,0
2019-03-06T03:12:20.680Z,0
2019-03-06T03:13:30.665Z,0
2019-03-06T03:14:40.394Z,0
2019-03-06T03:15:50.429Z,0
2019-03-06T03:17:00.438Z,0
2019-03-06T03:18:10.403Z,0
2019-03-06T03:19:20.367Z,0
2019-03-06T03:20:30.106Z,0
2019-03-06T03:21:40.117Z,0
2019-03-06T03:22:49.869Z,0
2019-03-06T03:23:59.879Z,0
2019-03-06T03:25:10.023Z,0
2019-03-06T03:26:19.997Z,0
2019-03-06T03:27:29.951Z,0
2019-03-06T03:28:40.482Z,0
2019-03-06T03:29:51.102Z,0
2019-03-06T03:31:01.507Z,0
2019-03-06T03:32:12.129Z,0
2019-03-06T03:33:22.231Z,0
2019-03-06T03:34:32.476Z,0
2019-03-06T03:35:42.462Z,0
2019-03-06T03:36:52.223Z,0
2019-03-06T03:38:01.959Z,0
2019-03-06T03:39:11.923Z,0
2019-03-06T03:40:21.916Z,0
2019-03-06T03:41:31.648Z,0
2019-03-06T03:42:41.366Z,0
2019-03-06T03:43:51.071Z,0
2019-03-06T03:45:01.062Z,0
2019-03-06T03:46:11.033Z,0
2019-03-06T03:47:21.003Z,0
2019-03-06T03:48:30.719Z,0
2019-03-06T03:49:40.446Z,0
2019-03-06T03:50:50.448Z,0
2019-03-06T03:52:00.423Z,0
2019-03-06T03:53:10.387Z,0
2019-03-06T03:54:20.402Z,0
2019-03-06T03:55:30.421Z,0
2019-03-06T03:56:40.139Z,0
2019-03-06T03:57:49.886Z,0
2019-03-06T03:58:59.860Z,0
2019-03-06T04:00:09.583Z,0
2019-03-06T04:01:19.318Z,0
2019-03-06T04:02:28.770Z,0
2019-03-06T04:03:38.749Z,0
2019-03-06T04:04:48.484Z,0
2019-03-06T04:05:58.479Z,0
2019-03-06T04:07:08.465Z,0
2019-03-06T04:08:18.210Z,0
2019-03-06T04:09:28.246Z,0
2019-03-06T04:10:38.709Z,0
2019-03-06T04:11:49.228Z,0
2019-03-06T04:12:59.476Z,0
2019-03-06T04:14:09.849Z,0
2019-03-06T04:15:20.020Z,0
2019-03-06T04:16:30.018Z,0
2019-03-06T04:17:39.741Z,0
2019-03-06T04:18:49.490Z,0
2019-03-06T04:19:59.194Z,0
2019-03-06T04:21:09.166Z,0
2019-03-06T04:22:18.934Z,0
2019-03-06T04:23:28.641Z,0
2019-03-06T04:24:38.627Z,0
2019-03-06T04:25:48.878Z,0
2019-03-06T04:26:58.612Z,0
2019-03-06T04:28:08.592Z,0
2019-03-06T04:29:18.570Z,0
2019-03-06T04:30:28.046Z,0
2019-03-06T04:31:38.030Z,0
2019-03-06T04:32:48.037Z,0
2019-03-06T04:33:58.005Z,0
2019-03-06T04:35:08.066Z,0
2019-03-06T04:36:18.071Z,0
2019-03-06T04:37:28.032Z,0
2019-03-06T04:38:37.997Z,0
2019-03-06T04:39:47.690Z,0
2019-03-06T04:40:57.406Z,0
2019-03-06T04:42:07.375Z,0
2019-03-06T04:43:17.343Z,0
2019-03-06T04:44:26.792Z,0
2019-03-06T04:45:36.510Z,0
2019-03-06T04:46:46.212Z,0
2019-03-06T04:47:55.933Z,0
2019-03-06T04:49:06.099Z,0
2019-03-06T04:50:16.777Z,0
2019-03-06T04:51:27.442Z,0
2019-03-06T04:52:37.891Z,0
2019-03-06T04:53:48.052Z,0
2019-03-06T04:54:57.753Z,0
2019-03-06T04:56:07.218Z,0
2019-03-06T04:57:16.675Z,0
2019-03-06T04:58:28.672Z,0
2019-03-06T04:59:38.390Z,0
2019-03-06T05:00:48.128Z,0
2019-03-06T05:01:58.088Z,0
2019-03-06T05:03:08.056Z,0
2019-03-06T05:04:18.002Z,0
2019-03-06T05:05:27.965Z,0
2019-03-06T05:06:37.681Z,0
2019-03-06T05:07:47.156Z,0
2019-03-06T05:08:56.861Z,0
2019-03-06T05:10:06.826Z,0
2019-03-06T05:11:16.287Z,0
2019-03-06T05:12:26.248Z,0
2019-03-06T05:13:35.712Z,0
2019-03-06T05:14:45.671Z,0
2019-03-06T05:15:55.398Z,0
2019-03-06T05:17:05.106Z,0
2019-03-06T05:18:14.565Z,0
2019-03-06T05:19:24.512Z,0
2019-03-06T05:20:34.201Z,0
2019-03-06T05:21:43.916Z,0
2019-03-06T05:22:53.911Z,0
2019-03-06T05:24:03.865Z,0
2019-03-06T05:25:13.839Z,0
2019-03-06T05:26:23.949Z,0
2019-03-06T05:27:34.077Z,0
2019-03-06T05:28:44.665Z,0
2019-03-06T05:29:55.111Z,0
2019-03-06T05:31:05.515Z,0
2019-03-06T05:32:15.576Z,0
2019-03-06T05:33:25.293Z,0
2019-03-06T05:34:35.014Z,0
2019-03-06T05:35:44.992Z,5
2019-03-06T05:36:54.959Z,5
2019-03-06T05:38:04.923Z,5
2019-03-06T05:39:14.630Z,5
2019-03-06T05:40:24.339Z,5
2019-03-06T05:41:33.798Z,5
2019-03-06T05:42:43.747Z,5
2019-03-06T05:43:53.709Z,5
2019-03-06T05:45:03.676Z,10
2019-03-06T05:46:13.629Z,10
2019-03-06T05:47:23.337Z,10
2019-03-06T05:48:32.809Z,10
2019-03-06T05:49:42.272Z,15
2019-03-06T05:50:51.985Z,15
2019-03-06T05:52:01.962Z,15
2019-03-06T05:53:11.692Z,15
2019-03-06T05:54:21.418Z,20
2019-03-06T05:55:31.377Z,20
2019-03-06T05:56:41.347Z,20
2019-03-06T05:57:51.058Z,25
2019-03-06T05:59:01.022Z,25
2019-03-06T06:00:11.169Z,30
2019-03-06T06:01:21.495Z,30
2019-03-06T06:02:32.985Z,30
2019-03-06T06:03:43.081Z,35
2019-03-06T06:04:52.990Z,35
2019-03-06T06:06:02.947Z,35
2019-03-06T06:07:12.897Z,40
2019-03-06T06:08:22.609Z,40
2019-03-06T06:09:32.574Z,45
2019-03-06T06:10:42.537Z,45
2019-03-06T06:11:52.291Z,50
2019-03-06T06:13:01.997Z,50
2019-03-06T06:14:11.952Z,50
2019-03-06T06:15:21.902Z,55
2019-03-06T06:16:31.865Z,55
2019-03-06T06:17:41.823Z,55
2019-03-06T06:18:51.771Z,55
2019-03-06T06:20:01.734Z,55
2019-03-06T06:21:11.696Z,60
2019-03-06T06:22:21.404Z,60
2019-03-06T06:23:30.876Z,60
2019-03-06T06:24:40.588Z,60
2019-03-06T06:25:50.558Z,60
2019-03-06T06:27:00.520Z,60
2019-03-06T06:28:10.237Z,60
2019-03-06T06:29:19.720Z,65
2019-03-06T06:30:31.447Z,65
2019-03-06T06:31:41.403Z,65
2019-03-06T06:32:51.395Z,65
2019-03-06T06:34:01.382Z,70
2019-03-06T06:35:11.641Z,70
2019-03-06T06:36:22.245Z,75
2019-03-06T06:37:32.408Z,75
2019-03-06T06:38:44.736Z,80
2019-03-06T06:39:54.711Z,85
2019-03-06T06:41:04.449Z,90
2019-03-06T06:42:14.453Z,95
2019-03-06T06:43:24.203Z,100
2019-03-06T06:44:33.686Z,105
2019-03-06T06:45:43.655Z,100
2019-03-06T06:46:53.631Z,105
2019-03-06T06:48:03.368Z,105
2019-03-06T06:49:13.348Z,110
2019-03-06T06:50:23.343Z,115
2019-03-06T06:51:33.305Z,115
2019-03-06T06:52:43.281Z,120
2019-03-06T06:53:53.024Z,120
2019-03-06T06:55:02.992Z,120
2019-03-06T06:56:12.726Z,125
2019-03-06T06:57:22.694Z,125
2019-03-06T06:58:40.889Z,130
2019-03-06T06:59:50.601Z,130
2019-03-06T07:01:00.605Z,130
2019-03-06T07:02:10.597Z,135
2019-03-06T07:03:22.347Z,135
2019-03-06T07:04:32.738Z,135
2019-03-06T07:05:42.709Z,140
2019-03-06T07:06:52.805Z,140
2019-03-06T07:08:02.527Z,140
2019-03-06T07:09:11.982Z,140
2019-03-06T07:10:21.695Z,140
2019-03-06T07:11:31.674Z,145
2019-03-06T07:12:41.679Z,140
2019-03-06T07:13:51.649Z,140
2019-03-06T07:15:01.419Z,140
2019-03-06T07:16:11.145Z,140
2019-03-06T07:17:20.584Z,140
2019-03-06T07:18:30.295Z,140
2019-03-06T07:19:40.274Z,140
2019-03-06T07:20:50.055Z,140
2019-03-06T07:21:59.276Z,145
2019-03-06T07:23:09.236Z,145
2019-03-06T07:24:19.205Z,145
2019-03-06T07:25:29.157Z,150
2019-03-06T07:26:38.641Z,155
2019-03-06T07:27:48.122Z,150
2019-03-06T07:28:57.851Z,155
2019-03-06T07:30:07.819Z,155
2019-03-06T07:31:17.802Z,160
2019-03-06T07:32:27.545Z,160
2019-03-06T07:33:37.524Z,160
2019-03-06T07:34:47.314Z,160
2019-03-06T07:35:57.992Z,165
2019-03-06T07:37:08.289Z,170
2019-03-06T07:38:18.726Z,170
2019-03-06T07:39:28.795Z,175
2019-03-06T07:40:38.790Z,180
2019-03-06T07:41:48.521Z,180
2019-03-06T07:42:58.283Z,185
2019-03-06T07:44:08.274Z,190
2019-03-06T07:45:17.745Z,195
2019-03-06T07:46:27.733Z,195
2019-03-06T07:47:37.731Z,200
2019-03-06T07:48:47.483Z,210
2019-03-06T07:49:57.230Z,215
2019-03-06T07:51:07.206Z,225
2019-03-06T07:52:16.913Z,230
2019-03-06T07:53:26.967Z,225
2019-03-06T07:54:36.934Z,225
2019-03-06T07:55:46.922Z,220
2019-03-06T07:56:56.412Z,220
2019-03-06T07:58:06.381Z,210
2019-03-06T07:59:16.139Z,200
2019-03-06T08:00:26.185Z,190
2019-03-06T08:01:35.948Z,180
2019-03-06T08:02:45.961Z,175
2019-03-06T08:03:55.932Z,180
2019-03-06T08:05:06.444Z,185
2019-03-06T08:06:16.822Z,195
2019-03-06T08:07:27.425Z,200
2019-03-06T08:08:37.838Z,195
2019-03-06T08:09:47.942Z,190
2019-03-06T08:10:57.952Z,185
2019-03-06T08:12:07.984Z,180
2019-03-06T08:13:18.002Z,190
2019-03-06T08:14:31.941Z,200
2019-03-06T08:15:41.895Z,200
2019-03-06T08:16:51.872Z,205
2019-03-06T08:18:01.844Z,205
2019-03-06T08:19:11.963Z,205
2019-03-06T08:20:21.930Z,205
2019-03-06T08:21:31.645Z,215
2019-03-06T08:22:41.640Z,210
2019-03-06T08:23:51.379Z,210
2019-03-06T08:25:01.355Z,215
2019-03-06T08:26:11.083Z,215
2019-03-06T08:27:21.116Z,225
2019-03-06T08:28:31.088Z,270
2019-03-06T08:29:41.267Z,300
2019-03-06T08:30:52.931Z,300
2019-03-06T08:32:02.659Z,305
2019-03-06T08:33:20.578Z,315
2019-03-06T08:34:30.787Z,320
2019-03-06T08:35:40.765Z,325
2019-03-06T08:36:50.482Z,340
2019-03-06T08:38:00.201Z,340
2019-03-06T08:39:09.911Z,340
2019-03-06T08:40:19.882Z,335
2019-03-06T08:41:29.592Z,335
2019-03-06T08:42:39.862Z,310
2019-03-06T08:43:49.842Z,305
2019-03-06T08:44:59.822Z,295
2019-03-06T08:46:09.550Z,290
2019-03-06T08:47:19.519Z,300
2019-03-06T08:48:29.511Z,325
2019-03-06T08:49:39.225Z,350
2019-03-06T08:50:49.222Z,355
2019-03-06T08:51:59.195Z,385
2019-03-06T08:53:09.162Z,395
2019-03-06T08:54:18.867Z,405
2019-03-06T08:55:28.850Z,410
2019-03-06T08:56:38.822Z,410
2019-03-06T08:57:48.072Z,395
2019-03-06T08:58:58.065Z,365
2019-03-06T09:00:08.117Z,345
2019-03-06T09:01:17.862Z,315
2019-03-06T09:02:27.599Z,320
2019-03-06T09:03:37.924Z,330
2019-03-06T09:04:48.498Z,370
2019-03-06T09:05:58.467Z,410
2019-03-06T09:07:08.805Z,415
2019-03-06T09:08:18.770Z,415
2019-03-06T09:09:28.513Z,405
2019-03-06T09:10:38.490Z,420
2019-03-06T09:11:49.162Z,420
2019-03-06T09:12:59.137Z,415
2019-03-06T09:14:09.324Z,410
2019-03-06T09:15:19.099Z,390
2019-03-06T09:16:28.839Z,380
2019-03-06T09:17:38.570Z,380
2019-03-06T09:18:48.296Z,400
2019-03-06T09:19:57.773Z,420
2019-03-06T09:21:07.756Z,435
2019-03-06T09:22:17.845Z,450
2019-03-06T09:23:32.943Z,455
2019-03-06T09:24:43.261Z,460
2019-03-06T09:25:53.240Z,460
2019-03-06T09:27:04.518Z,465
2019-03-06T09:28:14.280Z,455
2019-03-06T09:29:24.042Z,470
2019-03-06T09:30:34.023Z,475
2019-03-06T09:31:44.519Z,460
2019-03-06T09:32:54.521Z,460
2019-03-06T09:34:05.162Z,465
2019-03-06T09:35:15.659Z,475
2019-03-06T09:36:26.046Z,500
2019-03-06T09:37:36.021Z,535
2019-03-06T09:38:46.025Z,550
2019-03-06T09:39:55.996Z,570
2019-03-06T09:41:05.762Z,575
2019-03-06T09:42:15.736Z,595
2019-03-06T09:43:25.722Z,605
2019-03-06T09:44:35.224Z,610
2019-03-06T09:45:45.231Z,620
2019-03-06T09:46:55.196Z,630
2019-03-06T09:48:04.942Z,615
2019-03-06T09:49:21.053Z,630
2019-03-06T09:50:31.085Z,665
2019-03-06T09:51:40.804Z,680
2019-03-06T09:52:50.538Z,660
2019-03-06T09:54:00.514Z,645
2019-03-06T09:55:10.529Z,675
2019-03-06T09:56:20.291Z,675
2019-03-06T09:57:30.292Z,685
2019-03-06T09:58:40.304Z,715
2019-03-06T09:59:50.044Z,710
2019-03-06T10:00:59.810Z,750
2019-03-06T10:02:16.734Z,725
2019-03-06T10:03:27.204Z,745
2019-03-06T10:04:37.460Z,750
2019-03-06T10:05:47.442Z,735
2019-03-06T10:06:57.424Z,710
2019-03-06T10:08:07.404Z,740
2019-03-06T10:09:17.368Z,770
2019-03-06T10:10:27.352Z,815
2019-03-06T10:11:37.333Z,860
2019-03-06T10:12:54.487Z,890
2019-03-06T10:14:04.463Z,915
2019-03-06T10:15:14.204Z,925
2019-03-06T10:16:25.739Z,945
2019-03-06T10:17:37.450Z,1015
2019-03-06T10:18:47.498Z,1080
2019-03-06T10:19:57.518Z,1110
2019-03-06T10:21:07.021Z,1095
2019-03-06T10:22:16.492Z,1100
2019-03-06T10:23:26.247Z,1110
2019-03-06T10:24:36.042Z,1135
2019-03-06T10:25:46.112Z,1140
2019-03-06T10:26:56.138Z,1170
2019-03-06T10:28:15.684Z,1170
2019-03-06T10:29:25.524Z,1030
2019-03-06T10:30:35.625Z,1005
2019-03-06T10:31:45.931Z,1085
2019-03-06T10:32:55.989Z,1145
2019-03-06T10:34:06.079Z,1100
2019-03-06T10:35:16.181Z,1120
2019-03-06T10:36:26.014Z,1130
2019-03-06T10:37:35.888Z,1250
2019-03-06T10:38:46.224Z,1280
2019-03-06T10:39:56.583Z,1215
2019-03-06T10:41:06.195Z,1305
2019-03-06T10:42:16.616Z,1330
2019-03-06T10:43:26.401Z,1345
2019-03-06T10:44:39.632Z,1335
2019-03-06T10:45:51.665Z,1370
2019-03-06T10:47:01.963Z,1420
2019-03-06T10:48:11.997Z,1445
2019-03-06T10:49:22.111Z,1410
2019-03-06T10:52:34.980Z,1355
2019-03-06T10:53:52.335Z,1310
2019-03-06T10:55:04.935Z,1235
2019-03-06T10:56:14.841Z,1365
2019-03-06T10:57:24.990Z,1475
2019-03-06T10:58:35.068Z,1485
2019-03-06T10:59:45.246Z,1425
2019-03-06T11:00:55.383Z,1400
2019-03-06T11:02:06.420Z,1405
2019-03-06T11:03:16.411Z,1420
2019-03-06T11:04:26.243Z,1425
2019-03-06T11:05:36.646Z,1370
2019-03-06T11:06:46.748Z,1345
2019-03-06T11:07:56.843Z,1300
2019-03-06T11:09:06.970Z,1230
2019-03-06T11:10:26.721Z,1215
2019-03-06T11:11:37.112Z,1185
2019-03-06T11:12:47.217Z,1180
2019-03-06T11:14:05.747Z,1110
2019-03-06T11:15:16.188Z,1100
2019-03-06T11:24:03.704Z,960
2019-03-06T11:25:13.492Z,1005
2019-03-06T11:26:23.554Z,1005
2019-03-06T11:27:33.616Z,925
2019-03-06T11:28:43.157Z,955
2019-03-06T11:29:52.962Z,990
2019-03-06T11:31:02.973Z,925
2019-03-06T11:32:12.984Z,1020
2019-03-06T11:33:23.097Z,1030
2019-03-06T11:34:33.050Z,1060
2019-03-06T11:35:43.833Z,1070
2019-03-06T11:36:54.043Z,1065
2019-03-06T11:38:04.373Z,1025
2019-03-06T11:39:15.213Z,1000
2019-03-06T11:40:25.887Z,1105
2019-03-06T11:41:36.143Z,1155
2019-03-06T11:42:46.131Z,1180
2019-03-06T11:43:56.335Z,1135
2019-03-06T11:45:06.463Z,1185
2019-03-06T11:46:16.266Z,1235
2019-03-06T11:47:26.274Z,1225
2019-03-06T11:48:36.067Z,1180
2019-03-06T11:49:46.099Z,1140
2019-03-06T11:50:55.857Z,1015
2019-03-06T11:52:05.633Z,960
2019-03-06T11:53:15.430Z,960
2019-03-06T11:54:25.482Z,945
2019-03-06T11:55:35.517Z,920
2019-03-06T11:56:45.593Z,865
2019-03-06T11:57:55.431Z,870
2019-03-06T11:59:05.238Z,870
2019-03-06T12:00:15.267Z,870
2019-03-06T12:01:25.445Z,915
2019-03-06T12:02:35.299Z,990
2019-03-06T12:03:45.098Z,1080
2019-03-06T12:04:55.157Z,1120
2019-03-06T12:06:05.202Z,1185
2019-03-06T12:07:15.247Z,1235
2019-03-06T12:08:25.053Z,1140
2019-03-06T12:09:35.164Z,1205
2019-03-06T12:10:45.019Z,1530
2019-03-06T12:11:55.028Z,1825
2019-03-06T12:13:05.060Z,2015
2019-03-06T12:14:15.085Z,2030
2019-03-06T12:15:25.105Z,2220
2019-03-06T12:16:43.946Z,2210
2019-03-06T12:17:53.486Z,2235
2019-03-06T12:19:03.038Z,2120
2019-03-06T12:20:18.025Z,2060
2019-03-06T12:21:27.841Z,2035
2019-03-06T12:22:37.646Z,1960
2019-03-06T12:23:47.796Z,1865
2019-03-06T12:24:57.847Z,1400
2019-03-06T12:26:07.621Z,1540
2019-03-06T12:27:17.356Z,1560
2019-03-06T12:28:27.388Z,1685
2019-03-06T12:29:37.271Z,1530
2019-03-06T12:30:47.286Z,1570
2019-03-06T12:31:57.632Z,1650
2019-03-06T12:33:07.958Z,1705
2019-03-06T12:34:18.572Z,1740
2019-03-06T12:35:28.622Z,1660
2019-03-06T12:36:40.975Z,1745
2019-03-06T12:37:56.494Z,1830
2019-03-06T12:39:06.302Z,1970
2019-03-06T12:40:22.552Z,1880
2019-03-06T12:41:32.548Z,1850
2019-03-06T12:42:42.315Z,1715
2019-03-06T12:43:54.353Z,1895
2019-03-06T12:45:04.379Z,2095
2019-03-06T12:46:22.647Z,2065
2019-03-06T12:47:32.889Z,2075
2019-03-06T12:48:42.404Z,2035
2019-03-06T12:49:52.146Z,2060
2019-03-06T12:51:06.867Z,2015
2019-03-06T12:52:16.877Z,1750
2019-03-06T12:53:26.896Z,1885
2019-03-06T12:54:36.674Z,2030
2019-03-06T12:55:46.678Z,2055
2019-03-06T12:56:56.431Z,2165
2019-03-06T12:58:09.562Z,2280
2019-03-06T12:59:20.175Z,2310
2019-03-06T13:00:30.765Z,1985
2019-03-06T13:01:41.726Z,2195
2019-03-06T13:02:52.033Z,1985
2019-03-06T13:04:02.023Z,1950
2019-03-06T13:05:12.188Z,2245
2019-03-06T13:06:31.377Z,1995
2019-03-06T13:07:41.589Z,2065
2019-03-06T13:09:01.303Z,1815
2019-03-06T13:10:11.349Z,1920
2019-03-06T13:11:21.146Z,2190
2019-03-06T13:12:31.722Z,2325
2019-03-06T13:13:45.063Z,2135
2019-03-06T13:14:54.877Z,2310
2019-03-06T13:16:04.739Z,2445
2019-03-06T13:17:14.794Z,2250
2019-03-06T13:18:24.865Z,2110
2019-03-06T13:19:34.674Z,2150
2019-03-06T13:20:44.702Z,2415
2019-03-06T13:21:54.781Z,2450
2019-03-06T13:23:06.463Z,2565
2019-03-06T13:24:16.243Z,2635
2019-03-06T13:25:26.018Z,2595
2019-03-06T13:26:36.328Z,2305
2019-03-06T13:27:54.292Z,2355
2019-03-06T13:29:07.404Z,2040
2019-03-06T13:30:18.515Z,2215
2019-03-06T13:31:29.015Z,2340
2019-03-06T13:32:39.524Z,2365
2019-03-06T13:33:49.733Z,2500
2019-03-06T13:35:02.069Z,2495
2019-03-06T13:36:12.399Z,2490
2019-03-06T13:37:22.228Z,2505
2019-03-06T13:38:32.278Z,2600
2019-03-06T13:39:42.075Z,2630
2019-03-06T13:40:52.130Z,2430
2019-03-06T13:42:02.187Z,2025
2019-03-06T13:43:12.007Z,1715
2019-03-06T13:44:23.625Z,1995
2019-03-06T13:45:33.418Z,1960
2019-03-06T13:46:43.465Z,1870
2019-03-06T13:47:55.756Z,1815
2019-03-06T13:49:05.790Z,1840
2019-03-06T13:50:16.271Z,1805
2019-03-06T13:51:26.375Z,1590
2019-03-06T13:52:36.413Z,1690
2019-03-06T13:53:46.199Z,1660
2019-03-06T13:54:56.383Z,1640
2019-03-06T13:56:06.408Z,1560
2019-03-06T13:57:16.430Z,1490
2019-03-06T13:58:25.976Z,1490
2019-03-06T13:59:35.754Z,1435
2019-03-06T14:00:45.536Z,1395
2019-03-06T14:01:55.594Z,1415
2019-03-06T14:03:05.632Z,1380
2019-03-06T14:04:15.426Z,1435
2019-03-06T14:05:25.464Z,1370
2019-03-06T14:06:35.510Z,1305
2019-03-06T14:07:45.550Z,1270
2019-03-06T14:08:55.331Z,1140
2019-03-06T14:10:05.408Z,975
2019-03-06T14:11:15.445Z,985
2019-03-06T14:12:25.516Z,915
2019-03-06T14:13:35.305Z,805
2019-03-06T14:14:45.360Z,775
2019-03-06T14:16:03.509Z,750
2019-03-06T14:17:13.520Z,760
2019-03-06T14:18:23.694Z,725
2019-03-06T14:19:35.079Z,705
2019-03-06T14:20:45.617Z,825
2019-03-06T14:21:56.035Z,875
2019-03-06T14:23:06.512Z,890
2019-03-06T14:24:17.031Z,900
2019-03-06T14:25:27.447Z,830
2019-03-06T14:26:37.702Z,835
2019-03-06T14:27:47.809Z,875
2019-03-06T14:28:57.598Z,895
2019-03-06T14:30:07.646Z,790
2019-03-06T14:31:17.792Z,695
2019-03-06T14:32:27.820Z,630
2019-03-06T14:33:37.625Z,595
2019-03-06T14:34:47.433Z,620
2019-03-06T14:35:57.468Z,505
2019-03-06T14:37:07.518Z,500
2019-03-06T14:38:17.348Z,570
2019-03-06T14:39:27.375Z,455
2019-03-06T14:40:37.432Z,460
2019-03-06T14:41:47.486Z,565
2019-03-06T14:42:58.029Z,605
2019-03-06T14:44:08.056Z,635
2019-03-06T14:45:18.104Z,705
2019-03-06T14:46:27.875Z,675
2019-03-06T14:47:37.895Z,680
2019-03-06T14:48:47.674Z,610
2019-03-06T14:49:57.754Z,570
2019-03-06T14:51:07.804Z,435
2019-03-06T14:52:17.360Z,390
2019-03-06T14:53:27.132Z,370
2019-03-06T14:54:37.162Z,355
2019-03-06T14:55:47.217Z,340
2019-03-06T14:56:57.280Z,335
2019-03-06T14:58:07.311Z,320
2019-03-06T14:59:17.080Z,305
2019-03-06T15:00:27.099Z,290
2019-03-06T15:01:37.112Z,270
2019-03-06T15:02:46.903Z,260
2019-03-06T15:03:56.677Z,245
2019-03-06T15:05:06.712Z,230
2019-03-06T15:06:17.553Z,215
2019-03-06T15:07:27.593Z,210
2019-03-06T15:08:37.650Z,200
2019-03-06T15:09:47.426Z,190
2019-03-06T15:10:57.194Z,185
2019-03-06T15:12:07.210Z,180
2019-03-06T15:13:18.172Z,175
2019-03-06T15:14:35.690Z,175
2019-03-06T15:15:46.292Z,175
2019-03-06T15:16:56.707Z,175
2019-03-06T15:18:15.380Z,170
2019-03-06T15:19:25.401Z,170
2019-03-06T15:20:35.194Z,170
2019-03-06T15:21:45.952Z,165
2019-03-06T15:22:55.995Z,165
2019-03-06T15:24:06.045Z,160
2019-03-06T15:25:15.838Z,155
2019-03-06T15:26:25.340Z,155
2019-03-06T15:27:35.610Z,155
2019-03-06T15:28:45.448Z,150
2019-03-06T15:29:55.240Z,150
2019-03-06T15:31:05.262Z,150
2019-03-06T15:32:15.347Z,150
2019-03-06T15:33:25.364Z,150
2019-03-06T15:34:35.400Z,150
2019-03-06T15:35:45.420Z,145
2019-03-06T15:36:55.462Z,145
2019-03-06T15:38:05.534Z,140
2019-03-06T15:39:15.554Z,135
2019-03-06T15:40:27.116Z,130
2019-03-06T15:41:36.884Z,125
2019-03-06T15:42:46.426Z,120
2019-03-06T15:43:55.961Z,115
2019-03-06T15:45:05.720Z,110
2019-03-06T15:46:15.725Z,105
2019-03-06T15:47:33.356Z,105
2019-03-06T15:48:43.718Z,95
2019-03-06T15:49:53.739Z,90
2019-03-06T15:51:03.538Z,85
2019-03-06T15:52:13.646Z,85
2019-03-06T15:53:31.976Z,80
2019-03-06T15:54:42.311Z,80
2019-03-06T15:55:52.797Z,75
2019-03-06T15:57:03.071Z,75
2019-03-06T15:58:13.220Z,75
2019-03-06T15:59:24.580Z,75
2019-03-06T16:00:34.661Z,70
2019-03-06T16:01:44.715Z,70
2019-03-06T16:02:54.746Z,65
2019-03-06T16:04:04.769Z,60
2019-03-06T16:05:14.778Z,60
2019-03-06T16:06:30.278Z,55
2019-03-06T16:07:40.338Z,50
2019-03-06T16:08:50.379Z,50
2019-03-06T16:10:00.333Z,50
2019-03-06T16:11:10.352Z,50
2019-03-06T16:12:21.984Z,45
2019-03-06T16:13:31.527Z,45
2019-03-06T16:14:41.289Z,45
2019-03-06T16:15:51.355Z,40
2019-03-06T16:17:00.898Z,40
2019-03-06T16:18:10.672Z,35
2019-03-06T16:19:20.448Z,35
2019-03-06T16:20:30.242Z,35
2019-03-06T16:21:40.287Z,30
2019-03-06T16:22:50.377Z,30
2019-03-06T16:24:00.422Z,25
2019-03-06T16:25:10.172Z,25
2019-03-06T16:26:19.925Z,20
2019-03-06T16:27:29.924Z,20
2019-03-06T16:28:39.693Z,20
2019-03-06T16:29:49.694Z,15
2019-03-06T16:30:59.736Z,15
2019-03-06T16:32:09.503Z,15
2019-03-06T16:33:21.070Z,10
2019-03-06T16:34:31.203Z,10
2019-03-06T16:35:40.964Z,10
2019-03-06T16:36:50.998Z,10